Time;durP1;ratioP1;P1;durP2;ratioP2;P2;SDS_P1;SDS_P2;PMS_P1;PMS_P2;Temp;Humidity;BMP_temperature;BMP_pressure;BME280_temperature;BME280_humidity;BME280_pressure;Samples;Min_cycle;Max_cycle;Signal;HPM_P1;HPM_P2
2023/04/21 00:00:53;;;;;;;17.23;10.77;;;;;;;8.10;100.00;102140.88;5021385;28;20186;-71
2023/04/21 00:03:21;;;;;;;19.17;11.47;;;;;;;8.05;100.00;102137.25;5020128;28;20210;-72
2023/04/21 00:05:47;;;;;;;19.97;9.90;;;;;;;8.03;100.00;102141.41;5024135;28;20191;-71
2023/04/21 00:08:13;;;;;;;19.23;11.30;;;;;;;8.01;100.00;102137.88;5008452;28;20226;-69
2023/04/21 00:10:38;;;;;;;15.97;11.03;;;;;;;8.04;100.00;102137.16;5018094;28;20225;-71
2023/04/21 00:13:04;;;;;;;15.23;10.30;;;;;;;8.01;100.00;102135.31;5018816;28;20594;-71
2023/04/21 00:15:29;;;;;;;17.23;10.77;;;;;;;8.01;100.00;102139.56;5003670;28;20190;-72
2023/04/21 00:17:56;;;;;;;21.13;11.03;;;;;;;7.96;100.00;102135.88;5014343;28;20707;-71
2023/04/21 00:20:22;;;;;;;16.67;10.37;;;;;;;7.99;100.00;102136.94;5021483;28;20256;-74
2023/04/21 00:22:49;;;;;;;21.63;11.37;;;;;;;7.95;100.00;102135.03;5017048;28;20304;-72
2023/04/21 00:25:15;;;;;;;16.37;11.40;;;;;;;7.90;100.00;102127.94;5019204;28;20186;-71
2023/04/21 00:27:40;;;;;;;17.00;9.67;;;;;;;7.90;100.00;102127.94;5007701;28;20607;-73
2023/04/21 00:30:06;;;;;;;15.07;10.23;;;;;;;7.85;100.00;102122.63;5022574;28;20226;-72
2023/04/21 00:32:32;;;;;;;17.53;10.63;;;;;;;7.81;100.00;102120.72;5011647;28;20222;-71
2023/04/21 00:34:57;;;;;;;19.07;11.20;;;;;;;7.79;100.00;102122.28;5017810;28;20253;-69
2023/04/21 00:37:23;;;;;;;16.33;9.97;;;;;;;7.81;100.00;102128.34;5003217;28;20210;-73
2023/04/21 00:39:48;;;;;;;13.67;9.97;;;;;;;7.79;100.00;102131.63;5019434;28;20850;-72
2023/04/21 00:42:16;;;;;;;16.73;10.17;;;;;;;7.79;100.00;102121.44;5006074;28;20210;-72
2023/04/21 00:44:41;;;;;;;14.20;9.93;;;;;;;7.76;100.00;102114.50;5010029;28;20688;-72
2023/04/21 00:47:06;;;;;;;17.57;10.70;;;;;;;7.76;100.00;102117.06;5006328;28;20199;-72
2023/04/21 00:49:32;;;;;;;16.73;11.03;;;;;;;7.71;100.00;102123.59;5010455;28;20207;-71
2023/04/21 00:51:57;;;;;;;19.97;10.63;;;;;;;7.72;100.00;102127.00;5024599;28;20186;-71
2023/04/21 00:54:24;;;;;;;15.03;10.93;;;;;;;7.72;100.00;102121.91;5008157;28;20190;-71
2023/04/21 00:56:50;;;;;;;16.67;9.87;;;;;;;7.72;100.00;102117.69;5012603;28;20285;-71
2023/04/21 00:59:16;;;;;;;17.07;9.80;;;;;;;7.70;100.00;102118.41;5019602;28;20256;-73
2023/04/21 01:01:41;;;;;;;14.43;10.30;;;;;;;7.66;100.00;102119.94;5026022;28;20246;-71
2023/04/21 01:04:09;;;;;;;19.40;10.63;;;;;;;7.72;100.00;102122.78;5007062;28;20221;-72
2023/04/21 01:06:35;;;;;;;15.10;10.30;;;;;;;7.71;100.00;102122.72;5008426;28;20187;-72
2023/04/21 01:09:05;;;;;;;16.67;10.63;;;;;;;7.69;100.00;102119.22;5009296;28;20210;-71
2023/04/21 01:11:31;;;;;;;15.67;10.23;;;;;;;7.65;100.00;102120.72;5004858;28;20545;-72
2023/04/21 01:13:56;;;;;;;13.83;9.80;;;;;;;7.68;100.00;102118.31;5017708;28;20189;-71
2023/04/21 01:16:22;;;;;;;19.20;10.13;;;;;;;7.66;100.00;102119.06;5007694;28;20225;-72
2023/04/21 01:18:52;;;;;;;15.43;9.67;;;;;;;7.67;100.00;102118.25;5004667;28;20622;-72
2023/04/21 01:21:19;;;;;;;16.70;9.93;;;;;;;7.63;100.00;102113.78;5020794;28;20210;-73
2023/04/21 01:23:44;;;;;;;16.77;10.40;;;;;;;7.61;100.00;102118.78;5006077;28;20624;-69
2023/04/21 01:26:10;;;;;;;20.20;10.70;;;;;;;7.61;100.00;102108.59;5002018;28;20232;-70
2023/04/21 01:28:36;;;;;;;17.93;10.27;;;;;;;7.60;100.00;102108.53;5005773;28;20638;-70
2023/04/21 01:31:03;;;;;;;18.40;10.73;;;;;;;7.62;100.00;102117.13;5007001;28;20198;-69
2023/04/21 01:33:29;;;;;;;17.47;10.07;;;;;;;7.61;100.00;102111.16;5025592;28;20655;-69
2023/04/21 01:35:57;;;;;;;14.90;9.97;;;;;;;7.61;100.00;102106.06;5008405;28;20213;-70
2023/04/21 01:38:23;;;;;;;15.23;9.87;;;;;;;7.56;100.00;102111.72;5010938;28;20221;-69
2023/04/21 01:40:51;;;;;;;15.33;10.47;;;;;;;7.52;100.00;102113.25;5008953;28;20293;-69
2023/04/21 01:43:19;;;;;;;15.83;9.97;;;;;;;7.50;100.00;102112.28;5026690;28;20699;-70
2023/04/21 01:45:46;;;;;;;20.23;10.90;;;;;;;7.49;100.00;102108.00;5001547;28;20214;-70
2023/04/21 01:48:11;;;;;;;17.07;9.03;;;;;;;7.50;100.00;102111.41;5014684;28;20275;-70
2023/04/21 01:50:38;;;;;;;16.63;10.20;;;;;;;7.44;100.00;102099.22;5026528;28;20195;-69
2023/04/21 01:53:04;;;;;;;17.07;10.03;;;;;;;7.44;100.00;102109.44;5024949;28;20324;-70
2023/04/21 01:55:29;;;;;;;19.10;10.23;;;;;;;7.42;100.00;102103.34;5023501;28;20648;-71
2023/04/21 01:57:57;;;;;;;14.73;9.73;;;;;;;7.43;100.00;102109.34;5009921;28;20364;-71
2023/04/21 02:00:22;;;;;;;16.80;10.03;;;;;;;7.43;100.00;102099.16;5021239;28;20194;-70
2023/04/21 02:02:48;;;;;;;17.17;10.07;;;;;;;7.46;100.00;102095.06;5024880;28;20699;-70
2023/04/21 02:05:13;;;;;;;16.90;10.37;;;;;;;7.45;100.00;102090.78;5022022;28;20199;-72
2023/04/21 02:07:40;;;;;;;20.20;10.57;;;;;;;7.46;100.00;102089.13;5009513;28;20210;-72
2023/04/21 02:10:05;;;;;;;17.77;10.57;;;;;;;7.43;100.00;102092.41;4984685;28;20179;-73
2023/04/21 02:12:31;;;;;;;16.93;11.03;;;;;;;7.37;100.00;102094.59;5019016;28;20422;-70
2023/04/21 02:14:56;;;;;;;17.43;10.63;;;;;;;7.32;100.00;102088.41;5024430;28;20274;-71
2023/04/21 02:17:22;;;;;;;19.33;10.73;;;;;;;7.35;100.00;102093.66;5002485;28;20214;-71
2023/04/21 02:19:48;;;;;;;16.93;10.13;;;;;;;7.31;100.00;102089.19;5022061;28;20189;-71
2023/04/21 02:22:13;;;;;;;19.57;9.73;;;;;;;7.28;100.00;102085.63;5012293;28;20203;-70
2023/04/21 02:24:39;;;;;;;17.03;10.03;;;;;;;7.37;100.00;102081.00;5023628;28;20198;-70
2023/04/21 02:27:05;;;;;;;15.73;9.80;;;;;;;7.29;100.00;102075.53;5024195;28;20254;-69
2023/04/21 02:29:31;;;;;;;18.30;10.30;;;;;;;7.32;100.00;102090.09;5023986;28;20198;-70
2023/04/21 02:31:58;;;;;;;17.23;10.60;;;;;;;7.32;100.00;102090.09;5008924;28;20724;-72
2023/04/21 02:34:23;;;;;;;17.43;10.57;;;;;;;7.27;100.00;102077.09;5006255;28;20198;-69
2023/04/21 02:36:49;;;;;;;18.53;10.43;;;;;;;7.25;100.00;102078.69;5019608;28;20194;-71
2023/04/21 02:39:14;;;;;;;15.23;10.13;;;;;;;7.28;100.00;102078.84;4998679;28;20699;-71
2023/04/21 02:41:40;;;;;;;17.20;10.73;;;;;;;7.27;100.00;102087.28;5020924;28;20217;-69
2023/04/21 02:44:05;;;;;;;15.60;10.40;;;;;;;7.32;100.00;102079.91;5026762;28;20206;-71
2023/04/21 02:46:31;;;;;;;18.23;11.33;;;;;;;7.26;100.00;102080.44;5028567;28;20554;-70
2023/04/21 02:48:57;;;;;;;16.80;10.50;;;;;;;7.28;100.00;102094.13;5007243;28;20234;-70
2023/04/21 02:51:23;;;;;;;22.17;10.77;;;;;;;7.26;100.00;102083.00;5011391;28;20683;-69
2023/04/21 02:53:48;;;;;;;17.70;10.27;;;;;;;7.25;100.00;102091.44;5019832;28;20194;-70
2023/04/21 02:56:14;;;;;;;19.20;10.57;;;;;;;7.24;100.00;102088.81;5007295;28;20195;-71
2023/04/21 02:58:40;;;;;;;24.20;10.33;;;;;;;7.22;100.00;102086.16;5021264;28;20210;-73
2023/04/21 03:01:06;;;;;;;18.83;10.70;;;;;;;7.28;100.00;102077.97;5021967;28;20194;-72
2023/04/21 03:03:33;;;;;;;15.60;9.73;;;;;;;7.28;100.00;102083.06;5009804;28;20230;-72
2023/04/21 03:06:01;;;;;;;19.43;10.83;;;;;;;7.30;100.00;102087.44;5019704;28;20231;-72
2023/04/21 03:08:26;;;;;;;17.53;10.27;;;;;;;7.27;100.00;102087.28;5010610;28;20218;-71
2023/04/21 03:10:52;;;;;;;20.23;10.80;;;;;;;7.23;100.00;102067.53;5021380;28;20250;-70
2023/04/21 03:13:20;;;;;;;17.30;11.00;;;;;;;7.24;100.00;102074.38;4987959;28;20209;-71
2023/04/21 03:15:49;;;;;;;14.37;9.83;;;;;;;7.29;100.00;102083.16;5009131;28;20638;-71
2023/04/21 03:18:15;;;;;;;14.93;9.67;;;;;;;7.28;100.00;102067.78;5005128;28;20226;-71
2023/04/21 03:20:40;;;;;;;15.97;10.40;;;;;;;7.28;100.00;102086.47;5022592;28;20265;-71
2023/04/21 03:23:07;;;;;;;15.00;10.30;;;;;;;7.28;100.00;102089.03;5019961;28;20245;-70
2023/04/21 03:25:33;;;;;;;17.00;10.13;;;;;;;7.27;100.00;102069.44;5027245;28;20342;-71
2023/04/21 03:27:58;;;;;;;18.90;10.40;;;;;;;7.29;100.00;102072.09;4999872;28;20211;-70
2023/04/21 03:30:27;;;;;;;20.43;10.80;;;;;;;7.27;100.00;102068.59;5022432;28;20179;-71
2023/04/21 03:32:54;;;;;;;15.73;9.43;;;;;;;7.23;100.00;102067.53;5007527;28;20572;-70
2023/04/21 03:35:20;;;;;;;13.03;9.67;;;;;;;7.24;100.00;102066.72;5010067;28;20648;-71
2023/04/21 03:37:46;;;;;;;17.33;10.70;;;;;;;7.23;100.00;102080.28;5011007;28;20209;-71
2023/04/21 03:40:11;;;;;;;16.40;11.10;;;;;;;7.21;100.00;102075.91;5006106;28;20572;-71
2023/04/21 03:42:36;;;;;;;18.67;10.20;;;;;;;7.21;100.00;102063.16;5016824;28;20226;-71
2023/04/21 03:45:07;;;;;;;15.03;10.20;;;;;;;7.25;100.00;102071.06;5004350;28;20725;-71
2023/04/21 03:47:33;;;;;;;16.03;10.43;;;;;;;7.22;100.00;102068.34;5003159;28;20202;-71
2023/04/21 03:49:59;;;;;;;15.33;10.50;;;;;;;7.24;100.00;102082.00;5007171;28;21004;-71
2023/04/21 03:52:25;;;;;;;17.37;11.27;;;;;;;7.24;100.00;102076.06;5008825;28;20194;-71
2023/04/21 03:54:50;;;;;;;16.83;10.47;;;;;;;7.20;100.00;102069.06;5019534;28;20273;-72
2023/04/21 03:57:16;;;;;;;15.23;10.40;;;;;;;7.20;100.00;102069.06;5004557;28;20195;-72
2023/04/21 03:59:42;;;;;;;22.03;13.00;;;;;;;7.18;100.00;102066.41;5007804;28;20190;-71
2023/04/21 04:02:07;;;;;;;16.53;11.23;;;;;;;7.22;100.00;102068.34;5020470;28;20217;-71
2023/04/21 04:04:33;;;;;;;18.57;10.90;;;;;;;7.27;100.00;102066.91;5021193;28;20566;-70
2023/04/21 04:06:59;;;;;;;19.87;10.83;;;;;;;7.29;100.00;102064.44;5025730;28;20234;-71
2023/04/21 04:09:24;;;;;;;16.27;10.53;;;;;;;7.29;100.00;102062.78;5018408;28;20703;-71
2023/04/21 04:11:50;;;;;;;17.13;11.13;;;;;;;7.28;100.00;102071.19;5021754;28;20702;-71
2023/04/21 04:14:15;;;;;;;17.83;10.30;;;;;;;7.28;100.00;102065.25;5018412;28;20197;-71
2023/04/21 04:16:41;;;;;;;17.10;11.30;;;;;;;7.31;100.00;102067.94;5005995;28;20187;-72
2023/04/21 04:19:07;;;;;;;16.07;10.43;;;;;;;7.30;100.00;102061.09;5021175;28;20222;-71
2023/04/21 04:21:32;;;;;;;16.97;10.93;;;;;;;7.31;100.00;102066.28;5022881;28;20237;-71
2023/04/21 04:23:59;;;;;;;16.07;11.13;;;;;;;7.31;100.00;102058.63;5008664;28;20190;-71
2023/04/21 04:26:25;;;;;;;16.57;10.50;;;;;;;7.39;100.00;102072.66;5021218;28;20609;-70
2023/04/21 04:28:55;;;;;;;16.00;10.93;;;;;;;7.36;100.00;102062.28;5023974;28;20753;-71
2023/04/21 04:31:24;;;;;;;18.87;13.10;;;;;;;7.35;100.00;102074.94;5022602;28;20237;-70
2023/04/21 04:33:50;;;;;;;14.90;11.23;;;;;;;7.39;100.00;102067.53;5025673;28;20706;-71
2023/04/21 04:36:15;;;;;;;16.27;11.30;;;;;;;7.40;100.00;102064.19;5022303;28;21305;-71
2023/04/21 04:38:41;;;;;;;16.30;10.70;;;;;;;7.42;100.00;102072.78;5021515;28;20217;-71
2023/04/21 04:41:07;;;;;;;21.27;14.17;;;;;;;7.39;100.00;102074.31;5019571;28;20222;-71
2023/04/21 04:43:35;;;;;;;19.53;11.47;;;;;;;7.43;100.00;102054.19;5020281;28;20254;-70
2023/04/21 04:46:04;;;;;;;14.93;10.10;;;;;;;7.51;100.00;102065.59;5023879;28;20199;-71
2023/04/21 04:48:30;;;;;;;28.50;18.67;;;;;;;7.51;100.00;102059.66;5023722;28;20210;-72
2023/04/21 04:50:55;;;;;;;22.90;13.77;;;;;;;7.53;100.00;102066.59;5023267;28;20194;-71
2023/04/21 04:53:21;;;;;;;15.20;10.47;;;;;;;7.52;100.00;102066.50;5022135;28;20186;-72
2023/04/21 04:55:46;;;;;;;17.53;10.37;;;;;;;7.56;100.00;102063.31;5027295;28;20186;-71
2023/04/21 04:58:12;;;;;;;18.00;11.13;;;;;;;7.60;100.00;102060.13;5020821;28;20233;-71
2023/04/21 05:00:38;;;;;;;15.33;10.23;;;;;;;7.63;100.00;102058.59;5024088;28;20229;-70
2023/04/21 05:03:03;;;;;;;18.70;10.70;;;;;;;7.68;100.00;102057.16;5024425;28;20218;-70
2023/04/21 05:05:29;;;;;;;16.10;10.40;;;;;;;7.75;100.00;102054.13;5021036;28;20205;-71
2023/04/21 05:07:56;;;;;;;18.23;10.43;;;;;;;7.78;100.00;102054.25;5017029;28;20207;-71
2023/04/21 05:10:22;;;;;;;18.80;11.10;;;;;;;7.86;100.00;102052.09;5024262;28;20285;-70
2023/04/21 05:12:47;;;;;;;19.17;10.63;;;;;;;7.94;100.00;102063.53;5021740;28;20269;-70
2023/04/21 05:15:13;;;;;;;18.33;11.27;;;;;;;7.99;100.00;102069.75;5026352;28;20643;-70
2023/04/21 05:17:38;;;;;;;15.03;9.60;;;;;;;8.08;100.00;102065.09;5024856;28;20214;-69
2023/04/21 05:20:05;;;;;;;14.83;10.70;;;;;;;8.17;100.00;102068.09;5029911;28;20201;-70
2023/04/21 05:22:30;;;;;;;17.13;10.57;;;;;;;8.24;100.00;102058.28;5030703;28;20210;-70
2023/04/21 05:24:56;;;;;;;16.67;10.97;;;;;;;8.35;100.00;102069.00;5015832;28;20264;-70
2023/04/21 05:27:21;;;;;;;15.70;10.73;;;;;;;8.44;100.00;102072.84;5027240;28;20192;-69
2023/04/21 05:29:47;;;;;;;16.67;9.93;;;;;;;8.54;100.00;102066.53;5031771;28;20186;-70
2023/04/21 05:32:13;;;;;;;15.43;9.97;;;;;;;8.60;100.00;102062.59;5030189;28;20225;-69
2023/04/21 05:34:38;;;;;;;16.67;10.43;;;;;;;8.70;100.00;102064.75;5028812;28;20652;-70
2023/04/21 05:37:04;;;;;;;14.13;9.67;;;;;;;8.79;100.00;102060.06;5028806;28;20229;-69
2023/04/21 05:39:29;;;;;;;15.80;9.77;;;;;;;8.90;100.00;102050.34;5031628;28;20190;-69
2023/04/21 05:41:55;;;;;;;15.70;10.13;;;;;;;8.99;100.00;102056.72;5030393;28;20299;-69
2023/04/21 05:44:20;;;;;;;17.13;9.73;;;;;;;9.08;100.00;102058.84;5031428;28;20282;-69
2023/04/21 05:46:46;;;;;;;14.80;10.13;;;;;;;9.14;100.00;102054.88;5020265;28;20661;-70
2023/04/21 05:49:11;;;;;;;13.63;9.37;;;;;;;9.25;100.00;102061.34;5025518;28;20224;-69
2023/04/21 05:51:36;;;;;;;15.17;9.90;;;;;;;9.35;100.00;102053.25;5025640;28;20198;-69
2023/04/21 05:54:02;;;;;;;16.53;10.90;;;;;;;9.43;100.00;102062.13;5030341;28;20202;-70
2023/04/21 05:56:28;;;;;;;16.33;10.23;;;;;;;9.55;100.00;102059.22;5029015;28;20190;-69
2023/04/21 05:58:53;;;;;;;16.47;9.90;;;;;;;9.66;100.00;102055.44;5023803;28;20203;-69
2023/04/21 06:01:18;;;;;;;18.03;9.90;;;;;;;9.76;100.00;102049.91;5023841;28;20667;-69
2023/04/21 06:03:44;;;;;;;13.63;9.27;;;;;;;9.91;100.00;102051.41;5023907;28;20650;-69
2023/04/21 06:06:10;;;;;;;13.37;9.73;;;;;;;10.04;100.00;102040.00;5028243;28;20233;-69
2023/04/21 06:08:36;;;;;;;14.63;9.10;;;;;;;10.16;100.00;102040.53;5025042;28;20265;-70
2023/04/21 06:11:01;;;;;;;13.63;9.77;;;;;;;10.30;100.00;102017.22;5029831;28;20198;-69
2023/04/21 06:13:27;;;;;;;12.37;8.97;;;;;;;10.42;100.00;102004.88;5029532;28;20186;-71
2023/04/21 06:15:54;;;;;;;12.53;9.73;;;;;;;10.49;100.00;102003.44;5009524;28;20280;-68
2023/04/21 06:18:19;;;;;;;12.90;9.43;;;;;;;10.61;100.00;102001.34;5025000;28;20269;-69
2023/04/21 06:20:52;;;;;;;19.63;9.47;;;;;;;10.79;100.00;101979.84;5026825;28;20193;-68
2023/04/21 06:23:18;;;;;;;13.67;9.53;;;;;;;10.83;100.00;101968.03;5010481;28;20215;-69
2023/04/21 06:25:43;;;;;;;13.23;9.47;;;;;;;10.98;100.00;101961.78;5029997;28;20198;-68
2023/04/21 06:28:09;;;;;;;11.80;9.33;;;;;;;11.07;100.00;101953.53;5027401;28;20215;-69
2023/04/21 06:30:34;;;;;;;12.73;9.37;;;;;;;11.20;100.00;101910.41;5025127;28;20237;-69
2023/04/21 06:33:00;;;;;;;14.93;9.70;;;;;;;11.33;100.00;101910.00;5024216;28;20230;-69
2023/04/21 06:35:25;;;;;;;14.63;9.97;;;;;;;11.40;100.00;101909.41;5029001;28;20851;-68
2023/04/21 06:37:51;;;;;;;10.23;9.00;;;;;;;11.50;100.00;101901.19;5028299;28;20306;-70
2023/04/21 06:40:16;;;;;;;11.90;9.53;;;;;;;11.54;100.00;101876.50;5026169;28;20360;-73
2023/04/21 06:42:42;;;;;;;13.67;9.33;;;;;;;11.91;100.00;101899.94;5027966;28;20214;-72
2023/04/21 06:45:08;;;;;;;16.10;9.43;;;;;;;12.23;100.00;101887.25;5021665;28;20264;-72
2023/04/21 06:47:33;;;;;;;12.00;8.53;;;;;;;12.30;100.00;101885.75;5021795;28;20206;-72
2023/04/21 06:49:59;;;;;;;11.77;8.73;;;;;;;12.16;100.00;101812.59;5026165;28;20716;-70
2023/04/21 06:52:25;;;;;;;14.30;9.40;;;;;;;12.21;100.00;101813.59;5027151;28;20661;-69
2023/04/21 06:54:50;;;;;;;13.40;9.23;;;;;;;12.18;100.00;101800.66;5028963;28;20183;-70
2023/04/21 06:57:16;;;;;;;17.43;9.43;;;;;;;12.42;100.00;101838.16;5027040;28;20663;-69
2023/04/21 06:59:42;;;;;;;17.37;9.43;;;;;;;12.62;100.00;101821.56;5028707;28;20681;-70
2023/04/21 07:02:07;;;;;;;13.23;8.73;;;;;;;12.71;100.00;101834.66;5025505;28;20300;-70
2023/04/21 07:04:33;;;;;;;11.33;8.23;;;;;;;12.83;100.00;101800.72;5027594;28;20679;-70
2023/04/21 07:06:58;;;;;;;12.93;9.20;;;;;;;12.93;100.00;101783.00;5023543;28;20366;-69
2023/04/21 07:09:24;;;;;;;12.23;8.37;;;;;;;12.91;100.00;101787.22;5028025;28;20257;-71
2023/04/21 07:11:49;;;;;;;14.40;8.93;;;;;;;13.11;100.00;101754.31;5009273;28;20191;-69
2023/04/21 07:14:15;;;;;;;11.50;8.70;;;;;;;13.29;100.00;101710.13;5014559;28;20273;-69
2023/04/21 07:16:40;;;;;;;11.60;8.13;;;;;;;13.50;100.00;101679.72;5024120;28;20223;-70
2023/04/21 07:19:06;;;;;;;11.53;8.57;;;;;;;13.62;100.00;101652.53;5025864;28;20225;-70
2023/04/21 07:21:34;;;;;;;12.77;8.57;;;;;;;13.77;100.00;101659.69;5027284;28;20714;-70
2023/04/21 07:24:01;;;;;;;13.47;8.77;;;;;;;13.98;100.00;101636.91;5025611;28;20810;-71
2023/04/21 07:26:26;;;;;;;11.40;8.60;;;;;;;14.02;100.00;101608.69;5029515;28;20205;-71
2023/04/21 07:28:52;;;;;;;13.33;8.50;;;;;;;14.17;100.00;101588.34;5027821;28;20214;-71
2023/04/21 07:31:17;;;;;;;11.23;8.80;;;;;;;14.22;100.00;101567.84;5024073;28;20191;-70
2023/04/21 07:33:43;;;;;;;14.13;9.00;;;;;;;14.36;100.00;101569.78;5010130;28;20529;-70
2023/04/21 07:36:08;;;;;;;13.50;8.57;;;;;;;14.51;100.00;101544.25;5022623;28;20207;-69
2023/04/21 07:38:34;;;;;;;12.67;8.27;;;;;;;14.74;100.00;101532.53;5028016;28;20218;-70
2023/04/21 07:41:00;;;;;;;13.17;8.73;;;;;;;14.71;100.00;101513.59;5023454;28;20199;-71
2023/04/21 07:43:25;;;;;;;14.50;8.33;;;;;;;14.83;100.00;101500.88;5019224;28;20674;-71
2023/04/21 07:45:51;;;;;;;11.60;8.50;;;;;;;15.15;100.00;101540.81;5016166;28;20200;-71
2023/04/21 07:48:17;;;;;;;12.23;8.20;;;;;;;15.25;100.00;101478.16;5005121;28;20223;-69
2023/04/21 07:50:43;;;;;;;15.07;8.47;;;;;;;15.41;100.00;101488.69;5010418;28;20238;-70
2023/04/21 07:53:08;;;;;;;10.43;7.97;;;;;;;15.46;100.00;101468.94;5024348;28;20218;-70
2023/04/21 07:55:36;;;;;;;11.47;8.40;;;;;;;15.66;100.00;101474.28;5027828;28;20684;-70
2023/04/21 07:58:03;;;;;;;12.67;8.53;;;;;;;15.68;100.00;101452.81;5021874;28;20250;-70
2023/04/21 08:00:28;;;;;;;13.13;8.57;;;;;;;15.88;98.54;101416.81;5029296;28;20233;-70
2023/04/21 08:02:54;;;;;;;13.20;9.90;;;;;;;16.05;96.52;101384.16;5021087;28;20655;-69
2023/04/21 08:05:19;;;;;;;11.70;8.50;;;;;;;16.03;98.18;101407.41;5026929;28;20196;-70
2023/04/21 08:07:45;;;;;;;11.87;8.17;;;;;;;16.29;99.85;101416.19;5027084;28;20210;-70
2023/04/21 08:10:10;;;;;;;13.67;8.23;;;;;;;16.24;95.99;101383.41;5028903;28;20194;-70
2023/04/21 08:12:36;;;;;;;13.23;8.43;;;;;;;16.41;93.32;101363.72;5024589;28;20210;-70
2023/04/21 08:15:04;;;;;;;15.03;8.23;;;;;;;16.53;94.76;101374.97;5018406;28;20203;-70
2023/04/21 08:17:30;;;;;;;9.00;8.03;;;;;;;16.57;89.29;101335.34;5024502;28;20798;-70
2023/04/21 08:19:55;;;;;;;13.60;8.27;;;;;;;16.70;91.84;101338.81;5023278;28;20206;-69
2023/04/21 08:22:21;;;;;;;13.47;8.33;;;;;;;16.92;91.97;101351.81;5017750;28;20269;-70
2023/04/21 08:24:47;;;;;;;9.60;8.20;;;;;;;16.99;89.10;101316.47;5028350;28;20186;-70
2023/04/21 08:27:12;;;;;;;11.63;8.03;;;;;;;17.38;86.83;101301.78;5028766;28;20260;-70
2023/04/21 08:29:38;;;;;;;11.60;8.13;;;;;;;17.51;86.79;101311.31;5020105;28;20190;-72
2023/04/21 08:32:03;;;;;;;10.23;8.20;;;;;;;17.61;80.29;101239.63;5024763;28;20195;-71
2023/04/21 08:34:29;;;;;;;9.30;7.87;;;;;;;17.60;78.56;101227.53;5025305;28;20270;-71
2023/04/21 08:36:55;;;;;;;10.37;8.27;;;;;;;18.00;92.98;101333.63;5027394;28;20234;-71
2023/04/21 08:39:20;;;;;;;10.00;7.40;;;;;;;17.92;74.89;101218.75;5026420;28;20210;-71
2023/04/21 08:41:46;;;;;;;11.00;8.10;;;;;;;17.96;71.54;101191.13;5020104;28;20194;-71
2023/04/21 08:44:12;;;;;;;12.47;8.73;;;;;;;17.91;71.97;101188.53;5021855;28;20202;-71
2023/04/21 08:46:38;;;;;;;13.60;8.83;;;;;;;18.17;72.54;101204.84;5017792;28;20779;-71
2023/04/21 08:49:04;;;;;;;13.80;8.33;;;;;;;18.41;73.49;101204.72;5014743;28;20210;-70
2023/04/21 08:51:30;;;;;;;10.77;8.33;;;;;;;18.34;66.80;101163.25;5022934;28;20213;-71
2023/04/21 08:53:56;;;;;;;9.43;7.97;;;;;;;18.64;70.26;101183.78;5028299;28;20190;-72
2023/04/21 08:56:25;;;;;;;12.27;8.63;;;;;;;18.53;66.66;101168.31;5024922;28;20248;-71
2023/04/21 08:58:51;;;;;;;13.87;8.27;;;;;;;18.80;64.47;101168.06;5019529;28;20580;-71
2023/04/21 09:01:16;;;;;;;10.50;8.07;;;;;;;18.86;64.75;101191.38;5019404;28;20190;-70
2023/04/21 09:03:42;;;;;;;9.80;8.20;;;;;;;18.95;64.66;101206.88;5020286;28;20688;-70
2023/04/21 09:06:08;;;;;;;9.57;8.03;;;;;;;19.18;63.20;101217.91;5025533;28;20229;-71
2023/04/21 09:08:37;;;;;;;11.10;8.40;;;;;;;19.39;63.30;101228.09;5027848;28;20202;-70
2023/04/21 09:11:03;;;;;;;11.97;8.47;;;;;;;19.54;63.40;101230.56;5007079;28;20253;-71
2023/04/21 09:13:35;;;;;;;9.13;8.13;;;;;;;19.62;62.47;101238.28;5003656;28;20599;-71
2023/04/21 09:16:03;;;;;;;9.93;8.07;;;;;;;19.73;63.78;101272.78;5018034;28;20632;-72
2023/04/21 09:18:39;;;;;;;10.33;8.00;;;;;;;19.80;60.50;101251.06;5025239;28;20237;-71
2023/04/21 09:21:08;;;;;;;9.97;8.47;;;;;;;19.72;59.96;101263.28;5015271;28;20300;-72
2023/04/21 09:23:43;;;;;;;10.23;8.07;;;;;;;20.09;61.76;101321.81;5026171;28;20210;-69
2023/04/21 09:26:10;;;;;;;12.20;8.73;;;;;;;20.02;55.89;101283.72;5020345;28;20794;-70
2023/04/21 09:28:39;;;;;;;10.47;8.30;;;;;;;20.03;55.96;101296.69;5020702;28;20217;-69
2023/04/21 09:31:12;;;;;;;10.03;7.70;;;;;;;19.98;57.07;101319.31;5020646;28;20183;-69
2023/04/21 09:33:37;;;;;;;10.63;8.07;;;;;;;20.16;58.30;101333.84;5021865;28;20186;-69
2023/04/21 09:36:04;;;;;;;9.73;8.00;;;;;;;20.20;54.68;101297.41;5026801;28;20707;-70
2023/04/21 09:38:31;;;;;;;9.87;8.23;;;;;;;20.42;54.37;101298.84;5026296;28;20245;-69
2023/04/21 09:40:57;;;;;;;9.77;7.80;;;;;;;20.57;56.40;101329.00;5004788;28;20201;-71
2023/04/21 09:43:23;;;;;;;11.50;7.90;;;;;;;20.78;53.98;101306.13;5027106;28;20211;-69
2023/04/21 09:45:49;;;;;;;9.60;8.00;;;;;;;20.53;52.85;101299.56;5019090;28;20703;-70
2023/04/21 09:48:16;;;;;;;11.10;8.77;;;;;;;20.77;55.02;101324.41;5024180;28;20233;-70
2023/04/21 09:50:42;;;;;;;13.17;8.10;;;;;;;20.59;51.02;101283.00;5024715;28;20186;-70
2023/04/21 09:53:13;;;;;;;12.10;8.17;;;;;;;20.71;52.75;101325.34;5027122;28;20718;-71
2023/04/21 09:55:41;;;;;;;9.30;8.00;;;;;;;20.87;54.71;101362.44;5027365;28;20570;-70
2023/04/21 09:58:08;;;;;;;9.33;7.10;;;;;;;21.40;51.94;101345.13;5021606;28;20237;-70
2023/04/21 10:00:38;;;;;;;9.30;7.63;;;;;;;21.10;50.18;101323.91;5029781;28;20186;-71
2023/04/21 10:03:09;;;;;;;7.43;6.67;;;;;;;21.48;49.92;101332.81;5029649;28;20210;-71
2023/04/21 10:05:35;;;;;;;9.80;7.63;;;;;;;21.57;50.16;101344.81;5006172;28;20345;-71
2023/04/21 10:08:01;;;;;;;9.07;6.87;;;;;;;21.82;48.19;101318.31;5030435;28;20230;-70
2023/04/21 10:10:30;;;;;;;7.93;7.17;;;;;;;21.57;47.80;101318.75;5028238;28;20198;-70
2023/04/21 10:12:57;;;;;;;8.17;7.10;;;;;;;21.89;47.98;101329.50;5005571;28;20210;-70
2023/04/21 10:15:30;;;;;;;10.33;7.90;;;;;;;22.20;48.65;101335.84;5029382;28;20194;-70
2023/04/21 10:18:14;;;;;;;12.20;7.43;;;;;;;22.07;46.68;101303.88;5020843;28;20211;-70
2023/04/21 10:20:53;;;;;;;8.90;7.70;;;;;;;22.20;46.44;101296.69;5030191;28;20623;-70
2023/04/21 10:23:41;;;;;;;9.03;7.70;;;;;;;22.39;47.25;101324.13;5023385;28;20630;-70
2023/04/21 10:26:16;;;;;;;9.60;7.10;;;;;;;22.82;49.12;101353.66;5022199;28;20274;-70
2023/04/21 10:28:44;;;;;;;10.53;7.73;;;;;;;22.85;46.54;101308.31;5026439;28;20209;-71
2023/04/21 10:31:22;;;;;;;10.33;7.20;;;;;;;22.75;46.72;101327.72;5021165;28;20195;-70
2023/04/21 10:34:09;;;;;;;9.83;7.33;;;;;;;22.89;45.30;101312.59;5023136;28;20668;-70
2023/04/21 10:36:58;;;;;;;11.07;7.00;;;;;;;23.14;46.13;101325.03;5025406;28;20229;-70
2023/04/21 10:39:35;;;;;;;9.35;7.05;;;;;;;23.24;44.27;101302.19;5021704;28;20786;-71
2023/04/21 10:42:23;;;;;;;8.00;6.78;;;;;;;23.38;44.26;101300.91;5022238;28;20284;-70
2023/04/21 10:44:57;;;;;;;8.32;7.20;;;;;;;23.40;43.74;101300.88;5028487;28;20660;-70
2023/04/21 10:47:28;;;;;;;11.00;6.93;;;;;;;23.45;43.53;101304.25;5026548;28;20198;-70
2023/04/21 10:49:56;;;;;;;10.57;6.85;;;;;;;23.58;43.24;101305.66;5029184;28;20191;-70
2023/04/21 10:52:30;;;;;;;10.20;6.00;;;;;;;24.10;44.94;101327.78;5028060;28;20194;-70
2023/04/21 10:54:56;;;;;;;9.50;6.93;;;;;;;23.59;42.02;101283.81;5024079;28;20245;-70
2023/04/21 10:57:21;;;;;;;10.18;6.95;;;;;;;23.68;42.98;101313.22;5024377;28;20198;-70
2023/04/21 10:59:48;;;;;;;8.23;7.20;;;;;;;23.37;42.27;101301.81;5027361;28;20261;-70
2023/04/21 11:02:15;;;;;;;8.35;7.35;;;;;;;23.47;41.91;101297.19;5030717;28;20211;-70
2023/04/21 11:04:46;;;;;;;12.07;7.47;;;;;;;23.70;41.38;101286.97;5026218;28;20182;-70
2023/04/21 11:07:11;;;;;;;10.32;7.18;;;;;;;23.76;42.27;101307.78;5030674;28;20190;-71
2023/04/21 11:09:38;;;;;;;8.93;6.97;;;;;;;23.58;41.60;101295.19;5022120;28;20203;-70
2023/04/21 11:12:13;;;;;;;9.80;6.68;;;;;;;23.64;41.75;101314.19;5022285;28;20186;-71